Time;durP1;ratioP1;P1;durP2;ratioP2;P2;SDS_P1;SDS_P2;PMS_P1;PMS_P2;Temp;Humidity;BMP_temperature;BMP_pressure;BME280_temperature;BME280_humidity;BME280_pressure;Samples;Min_cycle;Max_cycle;Signal;HPM_P1;HPM_P2
2020/12/01 00:00:07;;;;;;;32.10;16.90;;;;;;;0.39;76.76;100137.50;3869749;22;20362;-78
2020/12/01 00:01:54;;;;;;;28.75;15.88;;;;;;;0.42;76.86;100134.72;3866738;22;20031;-78
2020/12/01 00:03:40;;;;;;;30.08;15.88;;;;;;;0.40;76.90;100128.69;3876885;23;20404;-79
2020/12/01 00:05:53;;;;;;;38.03;20.00;;;;;;;0.42;77.70;100131.25;3866802;22;20024;-79
2020/12/01 00:07:26;;;;;;;32.20;17.73;;;;;;;0.39;77.05;100120.88;3876286;23;20457;-78
2020/12/01 00:09:09;;;;;;;29.23;13.70;;;;;;;0.44;76.78;100114.47;3868240;22;20043;-78
2020/12/01 00:10:46;;;;;;;32.58;18.10;;;;;;;0.38;77.14;100098.13;3868220;22;20028;-78
2020/12/01 00:12:41;;;;;;;33.55;17.35;;;;;;;0.50;77.43;100108.03;3876997;23;20020;-78
2020/12/01 00:14:18;;;;;;;32.22;17.67;;;;;;;0.45;77.55;100099.53;3868991;22;20035;-78
2020/12/01 00:15:50;;;;;;;32.75;17.40;;;;;;;0.51;77.50;100099.22;3877209;23;20024;-78
2020/12/01 00:17:49;;;;;;;26.90;14.48;;;;;;;0.61;77.15;100094.31;3870428;22;20027;-79
2020/12/01 00:19:20;;;;;;;31.58;13.82;;;;;;;0.71;76.71;100105.25;3876788;23;20020;-78
2020/12/01 00:21:11;;;;;;;28.40;14.43;;;;;;;0.66;76.70;100079.16;3868979;22;20534;-78
2020/12/01 00:23:25;;;;;;;25.83;15.15;;;;;;;0.68;77.11;100090.44;3869347;22;20032;-78
2020/12/01 00:25:03;;;;;;;24.73;13.98;;;;;;;0.73;76.91;100079.66;3876753;22;20020;-79
2020/12/01 00:26:36;;;;;;;26.75;14.63;;;;;;;0.79;77.06;100084.63;3869854;22;20107;-78
2020/12/01 00:28:08;;;;;;;28.48;14.77;;;;;;;0.75;76.89;100083.94;3877153;23;20024;-79
2020/12/01 00:29:42;;;;;;;25.05;14.05;;;;;;;0.80;76.77;100088.97;3867758;22;20028;-78
2020/12/01 00:31:22;;;;;;;29.25;16.23;;;;;;;0.76;77.11;100085.63;3877129;23;20020;-79
2020/12/01 00:32:54;;;;;;;26.17;14.73;;;;;;;0.72;76.97;100076.19;3870866;22;20032;-79
2020/12/01 00:34:56;;;;;;;28.48;15.82;;;;;;;0.76;77.48;100082.97;3876974;22;20345;-79
2020/12/01 00:36:51;;;;;;;30.23;14.30;;;;;;;0.85;77.19;100086.09;3871122;23;20365;-78
2020/12/01 00:38:23;;;;;;;24.55;13.65;;;;;;;0.88;77.25;100080.63;3870727;22;20016;-78
2020/12/01 00:39:56;;;;;;;27.48;14.13;;;;;;;0.97;76.79;100085.41;3876507;23;20353;-79
2020/12/01 00:42:00;;;;;;;26.48;14.77;;;;;;;0.98;77.01;100084.47;3870148;22;20024;-78
2020/12/01 00:43:34;;;;;;;24.95;14.25;;;;;;;0.96;76.94;100088.97;3876485;23;20401;-79
2020/12/01 00:45:06;;;;;;;28.27;15.13;;;;;;;0.91;77.23;100080.47;3870107;22;20035;-78
2020/12/01 00:46:43;;;;;;;28.90;15.50;;;;;;;0.89;77.46;100092.88;3867812;22;20024;-78
2020/12/01 00:48:16;;;;;;;27.23;15.27;;;;;;;0.90;77.50;100084.03;3876688;23;20028;-79
2020/12/01 00:49:48;;;;;;;27.73;14.57;;;;;;;0.94;77.42;100093.50;3868603;22;20024;-79
2020/12/01 00:51:21;;;;;;;24.45;13.27;;;;;;;0.98;77.20;100081.84;3876627;23;20395;-78
2020/12/01 00:52:52;;;;;;;27.30;14.13;;;;;;;1.08;77.41;100088.31;3869625;22;20021;-78
2020/12/01 00:54:28;;;;;;;28.10;13.68;;;;;;;1.05;77.24;100087.63;3876490;22;20103;-79
2020/12/01 00:55:59;;;;;;;25.95;13.30;;;;;;;1.14;77.21;100083.63;3869127;22;20023;-79
2020/12/01 00:57:32;;;;;;;29.30;15.57;;;;;;;1.11;77.25;100081.19;3876125;23;20043;-78
2020/12/01 00:59:07;;;;;;;27.08;14.05;;;;;;;1.13;77.14;100089.88;3868916;22;20075;-79
2020/12/01 01:00:41;;;;;;;26.13;14.60;;;;;;;1.17;77.16;100075.59;3876175;23;20027;-78
2020/12/01 01:02:21;;;;;;;26.00;14.52;;;;;;;1.24;77.09;100082.22;3868808;22;20401;-79
2020/12/01 01:03:53;;;;;;;27.52;14.82;;;;;;;1.28;77.18;100081.13;3876295;23;20043;-79
2020/12/01 01:05:24;;;;;;;26.52;14.90;;;;;;;1.33;77.11;100081.69;3872610;22;20356;-78
2020/12/01 01:06:55;;;;;;;30.25;15.63;;;;;;;1.32;77.21;100079.16;3875343;23;20028;-79
2020/12/01 01:08:27;;;;;;;26.45;15.40;;;;;;;1.34;77.44;100077.28;3873455;22;20024;-78
2020/12/01 01:09:58;;;;;;;25.77;14.25;;;;;;;1.36;77.14;100078.91;3875738;23;20357;-78
2020/12/01 01:11:37;;;;;;;27.52;13.43;;;;;;;1.41;77.03;100070.75;3873509;22;20483;-79
2020/12/01 01:13:11;;;;;;;25.27;13.75;;;;;;;1.44;77.21;100059.19;3875008;23;20024;-79
2020/12/01 01:14:42;;;;;;;19.25;10.85;;;;;;;1.46;77.15;100065.22;3872904;22;20480;-78
2020/12/01 01:16:13;;;;;;;28.40;14.13;;;;;;;1.46;77.17;100060.81;3874926;23;20020;-79
2020/12/01 01:17:44;;;;;;;22.05;13.25;;;;;;;1.40;77.26;100059.38;3870961;22;20072;-78
2020/12/01 01:19:15;;;;;;;23.08;12.95;;;;;;;1.39;77.33;100054.16;3874479;23;20024;-78
2020/12/01 01:20:46;;;;;;;29.48;14.98;;;;;;;1.32;77.69;100056.31;3872123;22;20020;-78
2020/12/01 01:22:17;;;;;;;26.60;14.18;;;;;;;1.28;78.12;100054.78;3875071;23;20024;-78
2020/12/01 01:23:48;;;;;;;25.52;13.57;;;;;;;1.27;78.06;100060.97;3872961;22;20024;-78
2020/12/01 01:25:21;;;;;;;;;;;;;;;1.09;79.10;100058.44;3875939;22;20345;-78
2020/12/01 01:26:54;;;;;;;25.10;13.18;;;;;;;1.12;78.85;100057.41;3872011;22;20256;-78
2020/12/01 01:28:28;;;;;;;24.58;13.57;;;;;;;1.16;78.48;100048.41;3875226;23;20024;-79
2020/12/01 01:30:04;;;;;;;24.77;14.10;;;;;;;1.16;78.50;100047.53;3872263;22;20020;-78
2020/12/01 01:31:35;;;;;;;25.70;14.57;;;;;;;1.17;78.80;100046.63;3872859;22;20024;-78
2020/12/01 01:33:07;;;;;;;23.02;13.80;;;;;;;1.15;79.08;100045.84;3875180;23;20024;-78
2020/12/01 01:34:38;;;;;;;29.50;15.32;;;;;;;1.12;78.86;100040.75;3872504;22;20474;-78
2020/12/01 01:36:09;;;;;;;29.85;16.80;;;;;;;1.06;79.12;100037.50;3876206;23;20020;-78
2020/12/01 01:37:41;;;;;;;30.33;16.65;;;;;;;1.04;79.66;100035.91;3871992;22;20394;-78
2020/12/01 01:39:13;;;;;;;31.50;15.27;;;;;;;1.06;79.50;100036.69;3875542;23;20376;-80
2020/12/01 01:40:45;;;;;;;29.80;16.48;;;;;;;1.04;79.65;100035.91;3872389;22;20365;-80
2020/12/01 01:42:17;;;;;;;29.52;15.93;;;;;;;1.04;79.40;100023.56;3875201;23;20035;-81
2020/12/01 01:43:54;;;;;;;27.02;14.95;;;;;;;1.03;79.62;100018.41;3873586;22;20031;-80
2020/12/01 01:45:40;;;;;;;29.10;14.50;;;;;;;1.03;79.71;100015.78;3876351;22;20535;-78
2020/12/01 01:47:20;;;;;;;20.33;11.07;;;;;;;1.08;79.34;100005.84;3872998;22;20040;-78
2020/12/01 01:48:51;;;;;;;22.13;10.25;;;;;;;1.16;79.30;100005.41;3875709;23;20024;-78
2020/12/01 01:50:23;;;;;;;26.05;13.85;;;;;;;1.17;79.26;100001.84;3873891;22;20028;-78
2020/12/01 01:51:57;;;;;;;29.33;14.52;;;;;;;1.11;79.74;99996.94;3876627;23;20024;-79
2020/12/01 01:53:31;;;;;;;22.73;11.93;;;;;;;1.17;79.26;99994.81;3873436;22;20044;-78
2020/12/01 01:55:08;;;;;;;23.77;13.13;;;;;;;1.23;79.27;99988.31;3877283;22;20020;-78
2020/12/01 01:56:45;;;;;;;29.92;15.93;;;;;;;1.17;79.65;99980.78;3874189;22;20020;-78
2020/12/01 01:58:20;;;;;;;27.85;14.85;;;;;;;1.20;79.71;99975.34;3876593;23;20022;-78
2020/12/01 01:59:54;;;;;;;27.73;14.85;;;;;;;1.13;80.15;99974.84;3874208;22;20024;-79
2020/12/01 02:01:28;;;;;;;27.10;14.90;;;;;;;1.12;80.09;99973.13;3877309;23;20445;-78
2020/12/01 02:02:59;;;;;;;24.90;12.75;;;;;;;1.13;80.30;99966.09;3874281;22;20357;-79
2020/12/01 02:04:32;;;;;;;25.92;11.88;;;;;;;1.19;79.86;99957.84;3876441;22;20031;-78
2020/12/01 02:06:16;;;;;;;23.80;12.63;;;;;;;1.18;80.41;99951.72;3873432;22;20361;-79
2020/12/01 02:07:48;;;;;;;23.48;12.38;;;;;;;1.21;80.22;99948.91;3874093;22;20024;-79
2020/12/01 02:09:49;;;;;;;25.95;13.65;;;;;;;1.19;80.62;99947.31;3876945;23;20392;-78
2020/12/01 02:11:29;;;;;;;26.00;13.68;;;;;;;1.15;80.46;99946.63;3874898;22;20072;-78
2020/12/01 02:13:06;;;;;;;29.33;14.25;;;;;;;1.20;80.57;99939.31;3877203;23;20103;-78
2020/12/01 02:14:52;;;;;;;24.02;12.60;;;;;;;1.23;80.63;99948.81;3874774;22;20031;-80
2020/12/01 02:16:24;;;;;;;28.80;14.63;;;;;;;1.22;80.86;99940.06;3878982;23;20020;-78
2020/12/01 02:20:27;;;;;;;25.33;12.27;;;;;;;1.20;80.82;99933.22;3874309;22;20472;-80
2020/12/01 02:22:47;;;;;;;22.90;12.02;;;;;;;1.20;80.85;99926.13;3879875;23;20543;-79
2020/12/01 02:27:42;;;;;;;25.98;14.13;;;;;;;1.22;80.99;99899.75;3876574;22;20430;-79
2020/12/01 02:29:17;;;;;;;19.05;9.48;;;;;;;1.33;80.69;99907.84;3869739;22;20027;-79
2020/12/01 02:30:48;;;;;;;20.15;9.25;;;;;;;1.36;80.38;99894.50;3879372;23;20016;-79
2020/12/01 02:32:24;;;;;;;;;;;;;;;1.27;81.21;99889.78;3871700;23;20113;-79
2020/12/01 02:33:55;;;;;;;19.52;9.77;;;;;;;1.36;80.49;99889.25;3879808;23;19984;-79
2020/12/01 02:35:27;;;;;;;27.70;13.35;;;;;;;1.37;80.42;99876.94;3870578;22;20098;-79
2020/12/01 02:36:59;;;;;;;27.45;13.38;;;;;;;1.30;80.54;99868.53;3879729;23;20020;-80
2020/12/01 02:38:31;;;;;;;20.05;10.32;;;;;;;1.40;80.33;99864.41;3872943;22;20028;-79
2020/12/01 02:40:18;;;;;;;20.67;11.15;;;;;;;1.45;80.38;99858.00;3880230;23;20044;-79
2020/12/01 02:41:57;;;;;;;24.23;10.57;;;;;;;1.45;80.38;99852.75;3872986;22;20024;-79
2020/12/01 02:59:10;;;;;;;19.10;9.77;;;;;;;1.68;80.27;99841.69;3871563;22;20012;-79
2020/12/01 03:00:48;;;;;;;21.00;11.07;;;;;;;1.69;80.24;99827.56;3879447;23;20024;-78
2020/12/01 03:02:36;;;;;;;24.33;12.15;;;;;;;1.73;80.29;99832.63;3870507;23;20020;-79
2020/12/01 03:04:18;;;;;;;20.73;11.48;;;;;;;1.75;79.97;99828.13;3879275;22;20078;-80
2020/12/01 03:06:08;;;;;;;20.70;10.95;;;;;;;1.68;80.06;99817.97;3871047;22;20028;-79
2020/12/01 03:08:06;;;;;;;22.55;12.23;;;;;;;1.71;80.28;99822.19;3870046;22;20345;-79
2020/12/01 03:12:37;;;;;;;24.15;11.90;;;;;;;1.64;80.55;99821.72;3871562;23;20433;-79
2020/12/01 03:19:11;;;;;;;25.13;13.02;;;;;;;1.56;nan;99816.91;3877341;22;20015;-79
2020/12/01 03:23:39;;;;;;;23.50;12.75;;;;;;;1.48;81.10;99820.97;3882688;23;20016;-79
2020/12/01 03:25:12;;;;;;;24.13;12.57;;;;;;;1.46;81.07;99813.16;3888138;22;20020;-80
2020/12/01 03:26:49;;;;;;;26.60;14.40;;;;;;;1.46;81.39;99809.66;3880255;22;20020;-79
2020/12/01 03:28:37;;;;;;;22.50;11.50;;;;;;;1.58;81.03;99819.47;3888648;23;20020;-78
2020/12/01 03:30:08;;;;;;;25.13;13.50;;;;;;;1.56;80.94;99818.69;3882629;23;20379;-79
2020/12/01 03:31:46;;;;;;;24.08;12.57;;;;;;;1.59;81.08;99813.25;3881194;22;20020;-80
2020/12/01 03:33:42;;;;;;;22.23;11.65;;;;;;;1.64;80.89;99816.44;3879053;23;20020;-79
2020/12/01 03:35:18;;;;;;;23.63;12.05;;;;;;;1.61;80.86;99821.91;3871978;22;20020;-79
2020/12/01 03:36:57;;;;;;;18.63;10.05;;;;;;;1.68;80.92;99823.25;3881549;23;20302;-78
2020/12/01 03:38:50;;;;;;;21.48;11.75;;;;;;;1.73;80.84;99807.16;3873805;22;20490;-79
2020/12/01 03:40:24;;;;;;;24.75;11.35;;;;;;;1.76;80.47;99814.84;3880955;23;20024;-79
2020/12/01 03:41:56;;;;;;;20.20;10.30;;;;;;;1.79;80.71;99808.56;3869071;22;20027;-79
2020/12/01 03:43:34;;;;;;;21.98;11.07;;;;;;;1.82;80.33;99797.81;3879416;23;20071;-79
2020/12/01 03:45:06;;;;;;;18.40;10.30;;;;;;;1.84;80.32;99806.47;3875151;22;20088;-79
2020/12/01 03:46:38;;;;;;;16.60;8.98;;;;;;;1.86;80.27;99794.88;3871510;22;20020;-79
2020/12/01 03:48:10;;;;;;;21.52;11.35;;;;;;;1.85;80.21;99798.47;3878677;23;20020;-79
2020/12/01 03:49:56;;;;;;;22.70;11.23;;;;;;;1.89;80.17;99796.47;3871114;23;20071;-79
2020/12/01 03:51:29;;;;;;;18.92;10.48;;;;;;;1.94;80.28;99791.78;3879539;23;20024;-79
2020/12/01 03:53:41;;;;;;;18.38;9.93;;;;;;;1.96;79.95;99805.72;3872172;22;20017;-79
2020/12/01 03:55:27;;;;;;;20.77;10.75;;;;;;;1.91;80.30;99797.25;3879056;22;20031;-79
2020/12/01 03:56:59;;;;;;;15.93;7.95;;;;;;;1.96;80.02;99789.91;3869572;22;20404;-78
2020/12/01 03:58:34;;;;;;;18.20;9.80;;;;;;;2.02;79.79;99780.75;3879054;23;20039;-79
2020/12/01 04:00:11;;;;;;;14.98;7.70;;;;;;;1.92;79.60;99771.75;3871771;23;20035;-79
2020/12/01 04:02:11;;;;;;;19.77;10.55;;;;;;;1.95;79.48;99777.66;3872440;22;20020;-78
2020/12/01 04:03:44;;;;;;;19.00;9.95;;;;;;;1.92;79.88;99772.56;3878719;23;20024;-80
2020/12/01 04:05:17;;;;;;;22.20;12.05;;;;;;;1.98;80.00;99776.63;3875824;22;20023;-79
2020/12/01 04:06:57;;;;;;;21.67;11.43;;;;;;;1.96;79.70;99778.50;3859619;23;20099;-79
2020/12/01 04:08:51;;;;;;;19.58;10.73;;;;;;;2.00;79.73;99770.28;3852649;22;20027;-78
2020/12/01 04:15:44;;;;;;;22.83;12.02;;;;;;;1.93;80.17;99765.53;3839096;23;20100;-79
2020/12/01 04:18:04;;;;;;;17.13;9.25;;;;;;;1.94;79.84;99765.41;3834189;23;20028;-79
2020/12/01 04:37:05;;;;;;;;;;;;;;;2.05;79.43;99764.72;3893154;21;1071971;-77
2020/12/01 04:38:56;;;;;;;15.88;8.98;;;;;;;2.07;79.82;99762.00;3884815;22;19916;-77
2020/12/01 04:41:01;;;;;;;20.15;11.80;;;;;;;1.93;79.79;99758.44;3882625;23;20063;-77
2020/12/01 04:45:20;;;;;;;19.25;10.95;;;;;;;1.85;80.41;99756.28;3906914;22;20038;-77
2020/12/01 04:47:16;;;;;;;24.90;13.43;;;;;;;1.81;80.11;99756.56;3915460;22;20015;-83
2020/12/01 04:48:51;;;;;;;23.67;12.27;;;;;;;1.78;80.34;99754.16;3904360;22;20021;-82
2020/12/01 04:50:29;;;;;;;21.58;11.25;;;;;;;1.80;80.25;99754.88;3857816;22;20025;-81
2020/12/01 04:52:39;;;;;;;20.73;11.15;;;;;;;1.81;80.33;99754.81;3861937;23;20054;-81
2020/12/01 04:54:30;;;;;;;22.13;12.23;;;;;;;1.87;80.22;99749.13;3829105;23;20032;-81
2020/12/01 04:56:28;;;;;;;21.95;10.88;;;;;;;1.91;80.21;99744.50;3858868;22;20080;-81
2020/12/01 04:58:59;;;;;;;21.67;9.63;;;;;;;1.87;79.92;99746.50;3857739;23;20021;-82
2020/12/01 05:00:39;;;;;;;22.77;11.40;;;;;;;1.85;80.24;99750.19;3779093;23;20025;-82
2020/12/01 05:02:42;;;;;;;21.88;12.02;;;;;;;1.76;80.21;99745.47;3806082;22;20331;-81
2020/12/01 05:04:29;;;;;;;22.45;11.85;;;;;;;1.74;80.27;99745.59;3840324;23;20490;-81
2020/12/01 05:06:53;;;;;;;24.70;11.60;;;;;;;1.68;80.66;99752.09;3839539;23;20028;-81
2020/12/01 05:08:38;;;;;;;23.40;12.23;;;;;;;1.62;80.86;99749.81;3832360;23;20029;-82
2020/12/01 05:10:14;;;;;;;25.75;13.38;;;;;;;1.64;80.80;99737.38;3842843;23;20021;-82
2020/12/01 05:11:53;;;;;;;24.50;13.73;;;;;;;1.65;80.81;99738.25;3840701;23;20028;-81
2020/12/01 05:13:28;;;;;;;25.45;12.38;;;;;;;1.68;80.80;99732.78;3842624;23;20024;-82
2020/12/01 05:15:05;;;;;;;23.55;13.05;;;;;;;1.68;80.89;99736.28;3840233;23;20075;-82
2020/12/01 05:16:47;;;;;;;22.75;12.55;;;;;;;1.71;80.76;99728.16;3841016;22;20021;-81
2020/12/01 05:18:21;;;;;;;18.70;10.30;;;;;;;1.79;80.64;99724.22;3842046;23;20395;-81
2020/12/01 05:19:52;;;;;;;24.08;12.15;;;;;;;1.85;80.32;99729.09;3841510;23;20044;-81
2020/12/01 05:21:25;;;;;;;;;;;;;;;1.76;81.17;99725.22;3844723;23;20457;-81
2020/12/01 05:23:00;;;;;;;20.17;10.55;;;;;;;1.87;80.58;99732.47;3842413;22;19916;-81
2020/12/01 05:24:43;;;;;;;25.60;13.63;;;;;;;1.81;80.52;99723.16;3845315;23;20032;-82
2020/12/01 05:26:20;;;;;;;24.92;13.35;;;;;;;1.76;80.64;99721.75;3841598;23;20029;-81
2020/12/01 05:28:05;;;;;;;25.83;13.95;;;;;;;1.74;81.00;99726.28;3845435;23;20029;-82
2020/12/01 05:29:36;;;;;;;26.70;13.75;;;;;;;1.71;81.20;99728.16;3842842;22;20024;-82
2020/12/01 05:31:08;;;;;;;23.83;11.82;;;;;;;1.73;81.02;99721.94;3845809;23;20021;-81
2020/12/01 05:32:50;;;;;;;26.90;13.50;;;;;;;1.71;80.98;99722.88;3842578;23;20024;-82
2020/12/01 05:34:22;;;;;;;23.83;12.95;;;;;;;1.73;80.97;99729.84;3842105;23;20040;-81
2020/12/01 05:36:01;;;;;;;23.70;12.73;;;;;;;1.68;81.13;99733.63;3839434;23;20028;-80
2020/12/01 05:37:32;;;;;;;24.95;12.55;;;;;;;1.70;81.25;99721.19;3842411;23;20024;-80
2020/12/01 05:39:14;;;;;;;26.88;13.27;;;;;;;1.74;81.01;99726.28;3840042;23;20021;-82
2020/12/01 05:40:51;;;;;;;24.13;11.55;;;;;;;1.70;81.00;99720.34;3840755;22;20028;-81
2020/12/01 05:42:23;;;;;;;19.90;10.07;;;;;;;1.79;81.01;99726.84;3843298;23;20031;-82
2020/12/01 05:43:57;;;;;;;22.95;11.50;;;;;;;1.76;80.91;99717.31;3839798;23;20457;-82
2020/12/01 05:45:31;;;;;;;23.95;11.27;;;;;;;1.83;80.77;99721.28;3839530;23;20021;-82
2020/12/01 05:47:08;;;;;;;26.00;12.90;;;;;;;1.81;80.80;99725.81;3835134;22;20354;-81
2020/12/01 05:48:58;;;;;;;26.75;13.80;;;;;;;1.73;80.99;99729.84;3842343;23;20289;-82
2020/12/01 05:50:32;;;;;;;27.27;13.38;;;;;;;1.76;81.12;99729.66;3854209;23;20020;-82
2020/12/01 05:52:06;;;;;;;22.10;11.10;;;;;;;1.78;80.79;99720.72;3858121;23;20116;-82
2020/12/01 05:53:37;;;;;;;24.55;11.13;;;;;;;1.84;80.83;99725.59;3854734;22;20056;-81
2020/12/01 05:55:11;;;;;;;;;;;;;;;1.74;81.21;99721.00;3857928;23;20016;-82
2020/12/01 05:56:51;;;;;;;19.20;9.85;;;;;;;1.87;80.94;99727.22;3852823;23;19920;-81
2020/12/01 05:58:22;;;;;;;18.55;8.60;;;;;;;1.93;80.67;99716.25;3855180;23;20483;-81
2020/12/01 05:59:55;;;;;;;18.70;9.35;;;;;;;1.97;80.41;99715.13;3854696;22;20045;-82
2020/12/01 06:01:27;;;;;;;23.73;11.57;;;;;;;1.97;80.18;99715.13;3856937;23;20070;-81
2020/12/01 06:03:20;;;;;;;20.90;10.48;;;;;;;2.03;80.11;99716.53;3854257;23;20025;-81
2020/12/01 06:04:53;;;;;;;23.73;12.70;;;;;;;2.02;80.48;99720.94;3852578;22;20400;-81
2020/12/01 06:06:30;;;;;;;21.25;10.27;;;;;;;2.10;80.19;99720.47;3858107;23;20020;-81
2020/12/01 06:08:11;;;;;;;20.17;11.00;;;;;;;2.12;80.10;99715.94;3852395;23;20019;-81
2020/12/01 06:09:59;;;;;;;21.52;11.43;;;;;;;2.05;79.68;99716.44;3858653;23;20031;-81
2020/12/01 06:11:38;;;;;;;18.63;10.10;;;;;;;2.08;80.07;99710.97;3853774;22;20023;-81
2020/12/01 06:13:27;;;;;;;23.13;11.18;;;;;;;2.13;79.87;99717.63;3857228;23;20027;-81
2020/12/01 06:15:03;;;;;;;21.50;11.45;;;;;;;2.02;80.21;99713.03;3854058;23;20020;-81
2020/12/01 06:16:40;;;;;;;24.55;12.68;;;;;;;1.99;80.31;99715.03;3854979;22;20020;-81
2020/12/01 06:18:17;;;;;;;23.77;12.70;;;;;;;1.97;80.27;99717.78;3854906;23;20025;-81
2020/12/01 06:19:54;;;;;;;22.92;12.95;;;;;;;1.98;80.40;99719.47;3855404;23;20025;-80
2020/12/01 06:21:39;;;;;;;24.75;12.65;;;;;;;1.96;80.23;99724.00;3856997;23;20021;-81
2020/12/01 06:23:41;;;;;;;26.95;13.48;;;;;;;2.00;80.24;99728.09;3854571;22;20159;-81
2020/12/01 06:25:27;;;;;;;27.10;13.95;;;;;;;2.00;80.41;99722.81;3859907;23;20025;-81
2020/12/01 06:27:32;;;;;;;19.90;11.00;;;;;;;2.01;80.11;99716.63;3855357;23;20031;-80
2020/12/01 06:29:58;;;;;;;21.60;11.20;;;;;;;2.05;80.21;99725.16;3856177;22;20017;-80
2020/12/01 06:31:50;;;;;;;19.13;10.05;;;;;;;2.09;80.00;99712.63;3844805;23;20348;-81
2020/12/01 06:33:48;;;;;;;18.20;11.27;;;;;;;2.11;79.93;99718.66;3858081;23;20023;-81
2020/12/01 06:35:42;;;;;;;23.50;11.45;;;;;;;2.11;79.71;99719.53;3853499;23;20032;-81
2020/12/01 06:37:22;;;;;;;20.17;10.50;;;;;;;2.15;80.13;99721.00;3857085;23;20112;-81
2020/12/01 06:39:05;;;;;;;24.70;12.88;;;;;;;2.15;79.61;99721.00;3852768;23;20464;-81
2020/12/01 06:40:39;;;;;;;25.15;13.57;;;;;;;2.20;80.04;99725.97;3852707;23;20428;-81
2020/12/01 06:42:15;;;;;;;23.10;11.82;;;;;;;2.24;79.83;99722.22;3855614;23;20020;-81
2020/12/01 06:43:48;;;;;;;24.10;11.98;;;;;;;2.26;79.91;99727.38;3854518;22;20048;-81
2020/12/01 06:45:28;;;;;;;27.23;12.75;;;;;;;2.28;79.46;99720.22;3857871;23;20040;-81
2020/12/01 06:46:59;;;;;;;29.67;14.43;;;;;;;2.31;79.75;99715.59;3854697;23;20021;-81
2020/12/01 06:48:41;;;;;;;20.92;10.93;;;;;;;2.36;79.38;99725.00;3856867;23;20031;-81
2020/12/01 06:50:18;;;;;;;29.83;13.10;;;;;;;2.38;79.53;99717.81;3857994;22;20021;-81
2020/12/01 06:51:52;;;;;;;25.92;13.10;;;;;;;2.39;79.24;99716.88;3859690;23;20021;-81
2020/12/01 06:53:28;;;;;;;21.63;11.07;;;;;;;2.39;79.35;99722.16;3855078;23;20021;-81
2020/12/01 06:54:59;;;;;;;24.08;11.60;;;;;;;2.36;79.45;99719.72;3856750;23;20020;-80
2020/12/01 06:56:30;;;;;;;27.95;13.30;;;;;;;2.34;79.67;99722.44;3850818;22;20024;-80
2020/12/01 06:58:06;;;;;;;;;;;;;;;2.18;79.80;99719.94;3853714;23;20024;-80
2020/12/01 06:59:45;;;;;;;20.60;11.63;;;;;;;2.27;79.69;99724.63;3855044;23;19916;-81
2020/12/01 07:01:30;;;;;;;20.83;10.43;;;;;;;2.31;79.35;99731.41;3857044;23;20028;-80
2020/12/01 07:03:09;;;;;;;19.65;11.07;;;;;;;2.37;79.30;99724.91;3853129;22;20083;-81
2020/12/01 07:04:40;;;;;;;23.42;12.25;;;;;;;2.37;79.38;99727.53;3853795;23;20055;-81
2020/12/01 07:06:13;;;;;;;;;;;;;;;2.29;79.84;99722.75;3857308;23;20043;-81
2020/12/01 07:07:45;;;;;;;24.33;11.95;;;;;;;2.37;79.47;99724.03;3850969;23;19916;-81
2020/12/01 07:09:18;;;;;;;25.02;12.30;;;;;;;2.35;79.43;99729.41;3857214;23;20029;-81
2020/12/01 07:11:13;;;;;;;15.40;8.25;;;;;;;2.31;79.42;99718.22;3853938;22;20020;-81
2020/12/01 07:13:02;;;;;;;23.65;11.85;;;;;;;2.28;79.32;99726.31;3857354;23;20072;-81
2020/12/01 07:14:43;;;;;;;23.75;12.02;;;;;;;2.28;79.71;99726.31;3855959;23;20079;-81
2020/12/01 07:16:27;;;;;;;17.95;9.43;;;;;;;2.33;79.56;99729.53;3860039;23;20036;-81
2020/12/01 07:18:09;;;;;;;19.63;9.15;;;;;;;2.38;79.51;99725.72;3857051;22;20055;-80
2020/12/01 07:19:43;;;;;;;16.08;8.43;;;;;;;2.37;79.50;99722.25;3855877;23;20024;-81
2020/12/01 07:21:39;;;;;;;20.90;11.88;;;;;;;2.34;79.31;99725.94;3864150;23;20025;-80
2020/12/01 07:23:24;;;;;;;19.58;9.68;;;;;;;2.32;79.63;99722.56;3836948;22;20043;-81
2020/12/01 07:25:05;;;;;;;19.58;9.60;;;;;;;2.36;79.67;99717.94;3857892;23;20020;-81
2020/12/01 07:26:45;;;;;;;20.20;10.70;;;;;;;2.37;79.48;99716.13;3858202;23;20031;-81
2020/12/01 07:28:24;;;;;;;20.52;10.48;;;;;;;2.36;79.45;99717.09;3858217;23;20017;-81
2020/12/01 07:30:06;;;;;;;20.77;9.25;;;;;;;2.41;79.28;99715.81;3857435;22;20102;-81
2020/12/01 07:31:38;;;;;;;20.83;10.43;;;;;;;2.43;79.49;99713.09;3857010;23;20045;-80
2020/12/01 07:33:14;;;;;;;23.60;10.75;;;;;;;2.47;79.26;99704.88;3862040;23;20050;-81
2020/12/01 07:34:46;;;;;;;18.02;10.27;;;;;;;2.49;79.60;99712.69;3854635;22;20031;-81
2020/12/01 07:36:30;;;;;;;16.80;8.57;;;;;;;2.49;79.37;99708.28;3857948;23;20073;-80
2020/12/01 07:38:07;;;;;;;17.73;8.48;;;;;;;2.54;79.29;99710.59;3853739;23;20020;-81
2020/12/01 07:39:48;;;;;;;19.85;10.73;;;;;;;2.52;79.54;99698.44;3860229;23;20017;-81
2020/12/01 07:41:23;;;;;;;18.60;9.98;;;;;;;2.50;79.33;99701.19;3856579;22;20021;-81
2020/12/01 07:43:02;;;;;;;18.80;9.57;;;;;;;2.52;79.16;99707.22;3859265;23;20413;-81
2020/12/01 07:44:39;;;;;;;17.70;10.90;;;;;;;2.56;79.07;99711.31;3855584;23;20360;-81
2020/12/01 07:46:11;;;;;;;19.90;9.65;;;;;;;2.55;79.21;99700.88;3857106;23;20024;-81
2020/12/01 07:47:43;;;;;;;19.30;9.57;;;;;;;2.61;79.10;99703.97;3858902;22;20470;-81
2020/12/01 07:49:17;;;;;;;17.83;10.30;;;;;;;2.58;78.91;99704.16;3860087;23;20472;-80
2020/12/01 07:50:49;;;;;;;18.15;10.48;;;;;;;2.58;79.18;99703.31;3858010;23;20024;-81
2020/12/01 07:52:26;;;;;;;19.98;9.93;;;;;;;2.58;79.07;99717.34;3862231;23;20024;-81
2020/12/01 07:53:59;;;;;;;18.98;9.93;;;;;;;2.57;78.93;99714.81;3858433;22;20090;-80
2020/12/01 07:55:36;;;;;;;17.55;9.50;;;;;;;2.55;78.81;99712.28;3862193;23;20055;-82
2020/12/01 07:57:12;;;;;;;21.30;11.32;;;;;;;2.63;78.82;99722.31;3858584;23;20024;-81
2020/12/01 07:59:09;;;;;;;18.65;8.60;;;;;;;2.64;78.14;99713.47;3819213;22;20036;-80
2020/12/01 08:00:40;;;;;;;16.77;9.55;;;;;;;2.61;78.75;99717.16;3863833;23;20024;-80
2020/12/01 08:02:12;;;;;;;15.85;8.98;;;;;;;2.61;78.71;99721.56;3860390;23;20115;-80
2020/12/01 08:03:44;;;;;;;17.15;10.07;;;;;;;2.58;78.86;99722.63;3865048;23;20020;-81
2020/12/01 08:05:15;;;;;;;16.15;9.40;;;;;;;2.54;79.10;99726.44;3862102;22;20024;-81
2020/12/01 08:06:58;;;;;;;16.88;9.63;;;;;;;2.53;78.86;99729.16;3865073;23;20036;-80
2020/12/01 08:08:37;;;;;;;17.75;10.02;;;;;;;2.53;78.75;99730.03;3850951;23;20005;-81
2020/12/01 08:10:11;;;;;;;13.02;7.53;;;;;;;2.59;78.99;99726.97;3871006;23;20035;-80
2020/12/01 08:11:45;;;;;;;14.57;8.60;;;;;;;2.61;78.92;99725.06;3867168;22;20050;-81
2020/12/01 08:13:19;;;;;;;18.25;9.32;;;;;;;2.59;78.73;99726.13;3872203;23;20028;-81
2020/12/01 08:14:52;;;;;;;14.88;8.18;;;;;;;2.58;78.69;99727.91;3865724;23;20088;-81
2020/12/01 08:16:27;;;;;;;14.30;8.10;;;;;;;2.60;78.82;99731.31;3867307;23;20021;-81
2020/12/01 08:18:02;;;;;;;14.50;8.10;;;;;;;2.62;78.84;99732.06;3862749;23;20112;-81
2020/12/01 08:19:35;;;;;;;14.63;8.20;;;;;;;2.59;78.75;99734.06;3866851;23;20031;-81
2020/12/01 08:21:08;;;;;;;14.98;7.95;;;;;;;2.65;78.85;99734.47;3866414;23;20021;-82
2020/12/01 08:22:41;;;;;;;16.13;8.52;;;;;;;2.62;78.72;99729.41;3865311;22;20080;-81
2020/12/01 08:24:18;;;;;;;18.42;8.57;;;;;;;2.59;78.58;99734.06;3870824;23;20028;-81
2020/12/01 08:25:57;;;;;;;14.07;7.68;;;;;;;2.62;78.70;99734.69;3865349;23;20020;-81
2020/12/01 08:27:38;;;;;;;10.82;5.65;;;;;;;2.67;78.45;99731.75;3865759;23;20021;-81
2020/12/01 08:29:15;;;;;;;11.07;6.03;;;;;;;2.70;78.58;99735.97;3862899;22;20020;-81
2020/12/01 08:30:59;;;;;;;14.50;7.93;;;;;;;2.75;78.21;99733.84;3868633;23;20096;-81
2020/12/01 08:32:36;;;;;;;13.18;6.95;;;;;;;2.79;78.28;99724.78;3862611;23;20021;-81
2020/12/01 08:34:23;;;;;;;12.38;6.57;;;;;;;2.83;78.00;99730.72;3866360;23;20021;-81
2020/12/01 08:36:04;;;;;;;10.70;5.75;;;;;;;2.89;77.81;99731.16;3863884;22;20023;-81
2020/12/01 08:37:45;;;;;;;11.98;6.63;;;;;;;2.92;77.72;99728.31;3853572;23;20025;-81
2020/12/01 08:39:50;;;;;;;13.48;6.97;;;;;;;2.92;77.44;99730.97;3868913;23;20025;-81
2020/12/01 08:41:38;;;;;;;15.32;7.32;;;;;;;2.83;77.81;99734.22;3854483;22;20029;-82